Ancona, Illinois
Current Conditions -  °F | °C
As of 8:55 AM on Monday 24 Nov 2014 (Local Time) from KPNT Reporting Station
Light Snow Light Snow  
Wind Chill: 19°   Ceiling: 700
Heat Index: 33°   Visibility: 0.75mi
Dew Point: 32°   Wind: 30mph
Humidity: 96%   Direction: 260°W
Pressure: 29.32"   Gusts: 38mph
Location:  41.04°N, 88.87°W
Report Text: KPNT 241455Z AUTO 26026G33KT 3/4SM -SN OVC007 01/00 A2932 RMK AO2 P0001 60033 T00070002
Loading
Personal Weather Stations






























Interactive Weather Map New forecast layout! Learn more

10-Day Weather Forecast

Advertisements
Track Severe Weather on mobile